Time;durP1;ratioP1;P1;durP2;ratioP2;P2;SDS_P1;SDS_P2;PMS_P1;PMS_P2;Temp;Humidity;BMP_temperature;BMP_pressure;BME280_temperature;BME280_humidity;BME280_pressure;Samples;Min_cycle;Max_cycle;Signal;HPM_P1;HPM_P2
2022/01/11 00:00:31;;;;;;;681.00;112.93;;;-0.10;99.90;;;;;;5093145;28;20052;-44
2022/01/11 00:02:57;;;;;;;780.42;120.55;;;0.20;99.90;;;;;;5092887;28;20120;-44
2022/01/11 00:07:51;;;;;;;459.77;94.20;;;0.00;99.90;;;;;;5092515;28;20052;-43
2022/01/11 00:10:47;;;;;;;396.48;84.75;;;-0.10;99.90;;;;;;5091274;28;20054;-43
2022/01/11 00:13:06;;;;;;;555.30;100.20;;;0.80;99.90;;;;;;5092143;28;20127;-44
2022/01/11 00:15:32;;;;;;;555.45;98.53;;;-0.10;99.90;;;;;;5091293;28;20177;-43
2022/01/11 00:17:58;;;;;;;605.60;106.75;;;-0.10;99.90;;;;;;5092468;28;20036;-44
2022/01/11 00:20:28;;;;;;;410.25;89.07;;;-0.10;99.90;;;;;;5092511;28;20121;-44
2022/01/11 00:25:27;;;;;;;452.10;95.00;;;-0.10;99.90;;;;;;5092440;28;20098;-43
2022/01/11 00:27:53;;;;;;;609.33;111.28;;;0.00;99.90;;;;;;5092508;28;20055;-43
2022/01/11 00:30:19;;;;;;;555.42;107.22;;;-0.10;99.90;;;;;;5091753;28;20040;-45
2022/01/11 00:32:50;;;;;;;506.48;100.70;;;-0.20;99.90;;;;;;5092165;28;20078;-43
2022/01/11 00:35:18;;;;;;;512.33;106.03;;;0.00;99.90;;;;;;5092166;28;20439;-44
2022/01/11 00:37:44;;;;;;;379.65;93.45;;;-0.10;99.90;;;;;;5089622;28;20048;-43
2022/01/11 00:40:11;;;;;;;424.35;95.80;;;0.00;99.90;;;;;;5091992;28;20142;-43
2022/01/11 00:42:37;;;;;;;476.10;100.05;;;-0.10;99.90;;;;;;5092139;28;20044;-43
2022/01/11 00:45:05;;;;;;;538.05;104.55;;;-0.10;99.90;;;;;;5091718;28;20052;-43
2022/01/11 00:47:31;;;;;;;339.38;82.47;;;-0.20;99.90;;;;;;5091944;28;20044;-44
2022/01/11 00:49:57;;;;;;;496.95;99.15;;;-0.10;99.90;;;;;;5091854;28;20082;-44
2022/01/11 00:52:23;;;;;;;637.15;113.93;;;0.10;99.90;;;;;;5090442;28;20110;-43
2022/01/11 00:54:48;;;;;;;707.17;120.43;;;-0.20;99.90;;;;;;5091583;28;20148;-43
2022/01/11 00:57:14;;;;;;;648.25;111.00;;;0.00;99.90;;;;;;5091486;28;20047;-44
2022/01/11 00:59:40;;;;;;;668.25;114.60;;;-0.10;99.90;;;;;;5091482;28;20125;-43
2022/01/11 01:02:06;;;;;;;545.17;101.43;;;-0.10;99.90;;;;;;5091193;28;20125;-43
2022/01/11 01:04:32;;;;;;;820.42;127.07;;;-0.10;99.90;;;;;;5091509;28;20140;-43
2022/01/11 01:06:57;;;;;;;660.05;113.13;;;-0.10;99.90;;;;;;5091247;28;20119;-43
2022/01/11 01:09:27;;;;;;;578.33;105.93;;;-0.10;99.90;;;;;;5090082;28;20044;-45
2022/01/11 01:11:52;;;;;;;650.20;110.13;;;-0.10;99.90;;;;;;5091418;28;20048;-44
2022/01/11 01:14:18;;;;;;;589.83;110.03;;;-0.10;99.90;;;;;;5089452;28;20055;-44
2022/01/11 01:16:44;;;;;;;689.25;116.38;;;0.00;99.90;;;;;;5091382;28;20036;-43
2022/01/11 01:19:10;;;;;;;649.80;114.78;;;-0.10;99.90;;;;;;5091111;28;20032;-43
2022/01/11 01:21:39;;;;;;;657.00;109.15;;;0.00;99.90;;;;;;5091537;28;20040;-43
2022/01/11 01:24:08;;;;;;;524.53;99.82;;;-0.10;99.90;;;;;;5091431;28;20044;-44
2022/01/11 01:26:34;;;;;;;609.20;107.20;;;-0.20;99.90;;;;;;5091557;28;20471;-44
2022/01/11 01:29:00;;;;;;;738.15;119.82;;;-0.20;99.90;;;;;;5090976;28;20044;-44
2022/01/11 01:31:27;;;;;;;511.77;97.40;;;-0.10;99.90;;;;;;5091631;28;20043;-43
2022/01/11 01:33:54;;;;;;;601.10;109.55;;;-0.10;99.90;;;;;;5091524;28;20097;-44
2022/01/11 01:36:20;;;;;;;468.05;97.00;;;-0.10;99.90;;;;;;5090681;28;20136;-43
2022/01/11 01:38:46;;;;;;;495.92;101.45;;;0.00;99.90;;;;;;5088631;28;20127;-44
2022/01/11 01:41:16;;;;;;;560.47;108.35;;;0.00;99.90;;;;;;5089767;28;20131;-44
2022/01/11 01:43:43;;;;;;;642.25;112.95;;;-0.10;99.90;;;;;;5091125;28;20054;-44
2022/01/11 01:46:09;;;;;;;493.75;98.43;;;-0.10;99.90;;;;;;5090573;28;20040;-43
2022/01/11 01:48:38;;;;;;;598.13;106.88;;;0.00;99.90;;;;;;5090550;28;20909;-45
2022/01/11 01:51:08;;;;;;;485.30;97.97;;;-0.10;99.90;;;;;;5090712;28;20055;-44
2022/01/11 01:53:35;;;;;;;604.88;108.68;;;0.00;99.90;;;;;;5091074;28;20044;-44
2022/01/11 01:56:02;;;;;;;759.80;122.07;;;0.00;99.90;;;;;;5090909;28;20043;-43
2022/01/11 01:58:29;;;;;;;574.72;106.82;;;-0.10;99.90;;;;;;5090194;28;20140;-44
2022/01/11 02:01:02;;;;;;;530.33;103.65;;;0.00;99.90;;;;;;5090506;28;20103;-44
2022/01/11 02:03:30;;;;;;;680.22;115.65;;;0.10;99.90;;;;;;5090285;28;20040;-43
2022/01/11 02:05:57;;;;;;;588.95;107.88;;;0.10;99.90;;;;;;5090385;28;20501;-44
2022/01/11 02:08:25;;;;;;;585.00;107.00;;;0.00;99.90;;;;;;5090127;28;20055;-43
2022/01/11 02:10:52;;;;;;;657.97;114.95;;;0.10;99.90;;;;;;5090358;28;20055;-43
2022/01/11 02:13:18;;;;;;;546.92;104.55;;;0.00;99.90;;;;;;5090448;28;20440;-44
2022/01/11 02:15:44;;;;;;;470.40;93.97;;;0.00;99.90;;;;;;5088708;28;20051;-43
2022/01/11 02:18:16;;;;;;;822.50;129.23;;;0.00;99.90;;;;;;5090184;28;20028;-44
2022/01/11 02:20:44;;;;;;;421.63;92.70;;;0.00;99.90;;;;;;5090327;28;20047;-45
2022/01/11 02:23:11;;;;;;;548.00;105.93;;;-0.10;99.90;;;;;;5089821;28;20537;-45
2022/01/11 02:25:38;;;;;;;635.42;107.20;;;0.00;99.90;;;;;;5090116;28;20105;-44
2022/01/11 02:28:06;;;;;;;575.30;107.43;;;0.30;99.90;;;;;;5090127;28;20584;-44
2022/01/11 02:30:33;;;;;;;563.47;105.25;;;0.00;99.90;;;;;;5090028;28;20040;-44
2022/01/11 02:33:01;;;;;;;518.28;108.13;;;0.00;99.90;;;;;;5090099;28;20047;-45
2022/01/11 02:35:27;;;;;;;464.40;95.82;;;0.10;99.90;;;;;;5090111;28;20048;-43
2022/01/11 02:37:52;;;;;;;620.92;119.22;;;-0.10;99.90;;;;;;5087709;28;20118;-43
2022/01/11 02:40:18;;;;;;;596.95;110.50;;;0.10;99.90;;;;;;5089577;28;20521;-43
2022/01/11 02:42:44;;;;;;;512.75;103.18;;;0.10;99.90;;;;;;5089737;28;20058;-43
2022/01/11 02:45:17;;;;;;;636.83;116.45;;;0.00;99.90;;;;;;5089765;28;20040;-43
2022/01/11 02:47:44;;;;;;;667.10;113.20;;;0.10;99.90;;;;;;5089933;28;20074;-45
2022/01/11 02:50:11;;;;;;;504.02;98.70;;;0.40;99.90;;;;;;5089981;28;20463;-43
2022/01/11 02:52:37;;;;;;;609.92;113.80;;;-0.10;99.90;;;;;;5089218;28;20043;-45
2022/01/11 02:55:07;;;;;;;647.80;116.18;;;0.00;99.90;;;;;;5089507;28;20613;-44
2022/01/11 02:57:32;;;;;;;558.60;105.82;;;-0.10;99.90;;;;;;5089766;28;20048;-43
2022/01/11 02:59:59;;;;;;;685.42;113.53;;;0.00;99.90;;;;;;5089088;28;20048;-43
2022/01/11 03:02:24;;;;;;;523.50;101.88;;;0.00;99.90;;;;;;5089703;28;20052;-44
2022/01/11 03:04:50;;;;;;;671.88;114.60;;;0.00;99.90;;;;;;5089464;28;20040;-44
2022/01/11 03:07:20;;;;;;;462.92;97.45;;;-0.10;99.90;;;;;;5089199;28;20564;-44
2022/01/11 03:10:10;;;;;;;408.77;88.25;;;0.00;99.90;;;;;;5089526;28;20501;-43
2022/01/11 03:12:35;;;;;;;429.05;93.20;;;0.00;99.90;;;;;;5089181;28;20044;-44
2022/01/11 03:15:01;;;;;;;403.70;87.15;;;0.00;99.90;;;;;;5089535;28;20040;-43
2022/01/11 03:17:27;;;;;;;423.02;91.45;;;0.00;99.90;;;;;;5089370;28;20040;-44
2022/01/11 03:19:54;;;;;;;387.35;87.13;;;-0.10;99.90;;;;;;5088380;28;20086;-43
2022/01/11 03:22:20;;;;;;;316.83;72.45;;;-0.10;99.90;;;;;;5089380;28;20075;-44
2022/01/11 03:24:46;;;;;;;536.25;102.20;;;-0.10;99.90;;;;;;5089596;28;20473;-43
2022/01/11 03:27:12;;;;;;;343.02;75.68;;;-0.10;99.90;;;;;;5089367;28;20066;-44
2022/01/11 03:29:39;;;;;;;425.50;90.03;;;-0.20;99.90;;;;;;5089430;28;20039;-43
2022/01/11 03:32:07;;;;;;;326.80;78.05;;;-0.20;99.90;;;;;;5089282;28;20119;-44
2022/01/11 03:34:34;;;;;;;440.13;91.82;;;-0.30;99.90;;;;;;5089102;28;20036;-44
2022/01/11 03:36:59;;;;;;;426.63;87.78;;;-0.20;99.90;;;;;;5089877;28;20854;-44
2022/01/11 03:39:26;;;;;;;430.90;89.00;;;-0.20;99.90;;;;;;5086918;28;20047;-44
2022/01/11 03:41:52;;;;;;;382.70;84.75;;;-0.30;99.90;;;;;;5089412;28;20052;-44
2022/01/11 03:44:18;;;;;;;381.23;82.85;;;-0.30;99.90;;;;;;5089013;28;20055;-44
2022/01/11 03:46:44;;;;;;;341.85;75.60;;;-0.30;99.90;;;;;;5089261;28;20131;-43
2022/01/11 03:49:09;;;;;;;375.92;83.05;;;-0.20;99.90;;;;;;5089966;28;20082;-45
2022/01/11 03:51:38;;;;;;;310.98;74.78;;;-0.30;99.90;;;;;;5088983;28;20123;-45
2022/01/11 03:54:11;;;;;;;303.75;76.50;;;-0.20;99.90;;;;;;5089412;28;20047;-44
2022/01/11 03:56:37;;;;;;;391.13;86.75;;;-0.30;99.90;;;;;;5089367;28;20040;-45
2022/01/11 03:59:06;;;;;;;305.30;76.25;;;-0.30;99.90;;;;;;5089670;28;20044;-45
2022/01/11 04:01:41;;;;;;;331.85;75.25;;;-0.40;99.90;;;;;;5089243;28;20503;-45
2022/01/11 04:04:09;;;;;;;237.55;69.90;;;-0.20;99.90;;;;;;5090361;28;20529;-44
2022/01/11 04:06:35;;;;;;;425.38;86.22;;;-0.20;99.90;;;;;;5093004;28;20064;-43
2022/01/11 04:09:02;;;;;;;283.65;75.70;;;-0.20;99.90;;;;;;5093020;28;20047;-44
2022/01/11 04:11:28;;;;;;;285.83;73.55;;;-0.30;99.90;;;;;;5092773;28;20051;-44
2022/01/11 04:13:54;;;;;;;273.27;74.18;;;-0.20;99.90;;;;;;5093017;28;20036;-45
2022/01/11 04:16:20;;;;;;;293.42;74.80;;;-0.20;99.90;;;;;;5092715;28;20044;-43
2022/01/11 04:18:45;;;;;;;419.50;88.97;;;-0.20;99.90;;;;;;5092535;28;20481;-43
2022/01/11 04:21:11;;;;;;;364.08;82.72;;;-0.30;99.90;;;;;;5092613;28;20121;-43
2022/01/11 04:23:37;;;;;;;325.27;78.40;;;-0.30;99.90;;;;;;5092229;28;20050;-43
2022/01/11 04:26:03;;;;;;;321.50;75.07;;;-0.20;99.90;;;;;;5092409;28;20531;-44
2022/01/11 04:28:29;;;;;;;289.00;73.03;;;-0.20;99.90;;;;;;5092451;28;20117;-45
2022/01/11 04:30:59;;;;;;;312.90;75.45;;;-0.30;99.90;;;;;;5092222;28;20481;-45
2022/01/11 04:33:29;;;;;;;283.42;69.95;;;-0.30;99.90;;;;;;5092349;28;20474;-44
2022/01/11 04:35:58;;;;;;;278.35;69.90;;;-0.30;99.90;;;;;;5090607;28;20478;-44
2022/01/11 04:38:28;;;;;;;241.00;66.40;;;-0.30;99.90;;;;;;5089870;28;20040;-45
2022/01/11 04:40:54;;;;;;;362.45;82.13;;;-0.40;99.90;;;;;;5092151;28;20051;-46
2022/01/11 04:43:19;;;;;;;264.85;68.05;;;-0.30;99.90;;;;;;5091881;28;20048;-44
2022/01/11 04:45:47;;;;;;;422.00;85.85;;;-0.30;99.90;;;;;;5091575;28;20055;-45
2022/01/11 04:48:14;;;;;;;311.25;71.18;;;-0.40;99.90;;;;;;5092182;28;20543;-44
2022/01/11 04:50:41;;;;;;;404.23;83.47;;;-0.40;99.90;;;;;;5092155;28;20036;-45
2022/01/11 04:53:07;;;;;;;289.08;70.35;;;-0.30;99.90;;;;;;5092029;28;20032;-44
2022/01/11 04:55:33;;;;;;;295.95;70.90;;;-0.30;99.90;;;;;;5092151;28;20056;-45
2022/01/11 04:57:59;;;;;;;261.27;66.82;;;-0.30;99.90;;;;;;5091860;28;20069;-45
2022/01/11 05:00:26;;;;;;;255.75;68.57;;;-0.30;99.90;;;;;;5091628;28;20389;-44
2022/01/11 05:02:52;;;;;;;384.15;79.20;;;-0.40;99.90;;;;;;5091782;28;20048;-45
2022/01/11 05:05:18;;;;;;;343.95;76.07;;;-0.30;99.90;;;;;;5091829;28;20047;-44
2022/01/11 05:07:45;;;;;;;276.40;66.78;;;-0.30;99.90;;;;;;5091312;28;20044;-44
2022/01/11 05:10:11;;;;;;;273.85;71.93;;;-0.30;99.90;;;;;;5091739;28;20051;-44
2022/01/11 05:12:38;;;;;;;272.33;69.72;;;-0.10;99.90;;;;;;5091489;28;20036;-45
2022/01/11 05:15:12;;;;;;;350.25;75.97;;;-0.30;99.90;;;;;;5091125;28;20123;-44
2022/01/11 05:17:39;;;;;;;333.35;74.68;;;-0.40;99.90;;;;;;5091098;28;20097;-45
2022/01/11 05:20:07;;;;;;;313.92;73.88;;;0.40;99.90;;;;;;5069342;28;20515;-53
2022/01/11 05:22:33;;;;;;;433.58;83.75;;;-0.40;99.90;;;;;;5069111;28;20128;-50
2022/01/11 05:24:59;;;;;;;288.55;74.28;;;-0.30;99.90;;;;;;5072662;28;20037;-42
2022/01/11 05:27:27;;;;;;;342.92;75.72;;;-0.30;99.90;;;;;;5073788;28;20033;-43
2022/01/11 05:29:54;;;;;;;427.77;86.80;;;-0.30;99.90;;;;;;5071609;28;20039;-54
2022/01/11 05:32:20;;;;;;;359.13;78.15;;;-0.30;99.90;;;;;;5071624;28;20618;-47
2022/01/11 05:34:45;;;;;;;315.75;77.15;;;-0.30;99.90;;;;;;5071252;28;20086;-44
2022/01/11 05:37:11;;;;;;;423.95;84.07;;;-0.30;99.90;;;;;;5071253;28;20068;-44
2022/01/11 05:39:37;;;;;;;369.13;82.32;;;-0.30;99.90;;;;;;5073147;28;20051;-44
2022/01/11 05:42:06;;;;;;;382.70;85.25;;;-0.30;99.90;;;;;;5072553;28;20470;-42
2022/01/11 05:44:33;;;;;;;452.67;92.65;;;-0.40;99.90;;;;;;5073449;28;20085;-43
2022/01/11 05:46:59;;;;;;;368.08;83.50;;;-0.40;99.90;;;;;;5073549;28;20035;-44
2022/01/11 05:49:25;;;;;;;436.90;93.75;;;-0.20;99.90;;;;;;5068970;28;20444;-43
2022/01/11 05:51:50;;;;;;;401.38;90.72;;;-0.20;99.90;;;;;;5070006;28;20032;-44
2022/01/11 05:54:16;;;;;;;407.95;87.45;;;-0.30;99.90;;;;;;5071423;28;20032;-42
2022/01/11 05:56:42;;;;;;;439.50;91.43;;;0.20;99.90;;;;;;5072616;28;20093;-45
2022/01/11 05:59:08;;;;;;;374.02;87.10;;;-0.30;99.90;;;;;;5075247;28;20082;-42
2022/01/11 06:01:35;;;;;;;344.92;82.45;;;-0.30;99.90;;;;;;5072325;28;20425;-43
2022/01/11 06:04:01;;;;;;;375.65;86.07;;;-0.20;99.90;;;;;;5069830;28;20402;-45
2022/01/11 06:06:26;;;;;;;390.13;89.50;;;-0.30;99.90;;;;;;5068085;28;20055;-42
2022/01/11 06:08:52;;;;;;;414.55;92.32;;;-0.40;99.90;;;;;;5071577;28;20040;-42
2022/01/11 06:11:18;;;;;;;415.40;92.88;;;-0.40;99.90;;;;;;5070398;28;20041;-46
2022/01/11 06:13:44;;;;;;;397.58;89.05;;;-0.30;99.90;;;;;;5070291;28;20489;-46
2022/01/11 06:16:10;;;;;;;384.05;89.30;;;-0.30;99.90;;;;;;5070098;28;20066;-45
2022/01/11 06:18:36;;;;;;;369.77;89.78;;;-0.30;99.90;;;;;;5070397;28;20486;-44
2022/01/11 06:21:03;;;;;;;368.88;85.32;;;-0.30;99.90;;;;;;5070089;28;20661;-44
2022/01/11 06:23:28;;;;;;;418.95;92.38;;;-0.30;99.90;;;;;;5070355;28;20394;-46
2022/01/11 06:25:54;;;;;;;343.95;85.50;;;-0.40;99.90;;;;;;5069809;28;20048;-44
2022/01/11 06:28:20;;;;;;;425.73;95.00;;;-0.40;99.90;;;;;;5069413;28;20469;-48
2022/01/11 06:30:47;;;;;;;350.95;87.15;;;-0.40;99.90;;;;;;5070090;28;20036;-45
2022/01/11 06:33:13;;;;;;;364.23;86.65;;;0.10;99.90;;;;;;5068348;28;20414;-44
2022/01/11 06:35:39;;;;;;;402.02;90.95;;;-0.40;99.90;;;;;;5070080;28;20106;-45
2022/01/11 06:38:05;;;;;;;367.10;86.45;;;-0.40;99.90;;;;;;5075333;28;20040;-44
2022/01/11 06:40:31;;;;;;;368.25;89.88;;;-0.50;99.90;;;;;;5089887;28;20051;-45
2022/01/11 06:42:56;;;;;;;326.27;82.63;;;-0.50;99.90;;;;;;5089803;28;20148;-45
2022/01/11 06:45:22;;;;;;;346.00;83.68;;;-0.40;99.90;;;;;;5089800;28;20079;-44
2022/01/11 06:47:48;;;;;;;339.65;83.70;;;-0.30;99.90;;;;;;5089947;28;20036;-45
2022/01/11 06:50:14;;;;;;;351.05;78.50;;;-0.50;99.90;;;;;;5089600;28;20378;-44
2022/01/11 06:52:40;;;;;;;418.60;85.65;;;-0.40;99.90;;;;;;5089780;28;20436;-44
2022/01/11 06:55:07;;;;;;;364.63;87.18;;;-0.40;99.90;;;;;;5089503;28;20043;-45
2022/01/11 06:57:33;;;;;;;357.85;82.55;;;-0.60;99.90;;;;;;5090087;28;20347;-46
2022/01/11 06:59:59;;;;;;;400.75;90.78;;;-0.50;99.90;;;;;;5089428;28;20040;-45
2022/01/11 07:02:24;;;;;;;375.80;87.80;;;-0.40;99.90;;;;;;5089552;28;20052;-44
2022/01/11 07:04:50;;;;;;;372.40;87.93;;;-0.40;99.90;;;;;;5089809;28;20040;-47
2022/01/11 07:07:16;;;;;;;382.17;83.32;;;-0.50;99.90;;;;;;5089412;28;20043;-45
2022/01/11 07:09:42;;;;;;;331.45;83.18;;;-0.50;99.90;;;;;;5089747;28;20071;-45
2022/01/11 07:12:08;;;;;;;350.00;83.47;;;-0.50;99.90;;;;;;5089405;28;20088;-45
2022/01/11 07:14:34;;;;;;;352.25;83.18;;;-0.60;99.90;;;;;;5089627;28;20076;-45
2022/01/11 07:17:00;;;;;;;327.85;83.40;;;-0.40;99.90;;;;;;5089106;28;20441;-45
2022/01/11 07:19:29;;;;;;;368.75;85.65;;;-0.50;99.90;;;;;;5089464;28;20398;-45
2022/01/11 07:21:55;;;;;;;382.83;88.70;;;-0.60;99.90;;;;;;5090001;28;20044;-47
2022/01/11 07:24:23;;;;;;;425.67;90.35;;;-0.50;99.90;;;;;;5089519;28;20048;-44
2022/01/11 07:26:49;;;;;;;367.15;86.50;;;-0.60;99.90;;;;;;5089256;28;20044;-46
2022/01/11 07:29:14;;;;;;;351.30;83.50;;;-0.60;99.90;;;;;;5089200;28;20144;-44
2022/01/11 07:31:41;;;;;;;334.42;79.85;;;0.20;99.90;;;;;;5089504;28;20053;-46
2022/01/11 07:34:08;;;;;;;391.35;86.32;;;-0.70;99.90;;;;;;5089062;28;20093;-45
2022/01/11 07:36:34;;;;;;;391.27;91.65;;;-0.50;99.90;;;;;;5089333;28;20393;-44
2022/01/11 07:39:00;;;;;;;390.60;90.72;;;-0.50;99.90;;;;;;5088221;28;20393;-45
2022/01/11 07:41:26;;;;;;;353.25;82.22;;;-0.50;99.90;;;;;;5093202;28;20104;-44
2022/01/11 07:43:51;;;;;;;326.08;81.50;;;-0.50;99.90;;;;;;5093707;28;20084;-46
2022/01/11 07:46:17;;;;;;;296.08;77.72;;;-0.50;99.90;;;;;;5092938;28;20040;-45
2022/01/11 07:48:43;;;;;;;280.20;76.10;;;-0.60;99.90;;;;;;5091719;28;20504;-44
2022/01/11 07:51:09;;;;;;;247.35;70.05;;;-0.60;99.90;;;;;;5092927;28;20128;-45
2022/01/11 07:53:35;;;;;;;253.52;72.97;;;-0.60;99.90;;;;;;5092625;28;20419;-44
2022/01/11 07:56:01;;;;;;;225.82;67.97;;;-0.70;99.90;;;;;;5092798;28;20133;-45
2022/01/11 07:58:27;;;;;;;226.40;68.90;;;-0.50;99.90;;;;;;5093040;28;20520;-45
2022/01/11 08:00:53;;;;;;;238.32;69.40;;;-0.70;99.90;;;;;;5093234;28;20036;-44
2022/01/11 08:03:18;;;;;;;279.48;73.78;;;-0.60;99.90;;;;;;5092942;28;20097;-46
2022/01/11 08:05:44;;;;;;;222.02;69.90;;;-0.60;99.90;;;;;;5092892;28;20457;-45
2022/01/11 08:08:10;;;;;;;215.32;65.28;;;-0.60;99.90;;;;;;5092739;28;20043;-45
2022/01/11 08:10:36;;;;;;;229.45;71.70;;;-0.60;99.90;;;;;;5092734;28;20450;-44
2022/01/11 08:13:05;;;;;;;227.20;66.90;;;-0.50;99.90;;;;;;5092583;28;20100;-44
2022/01/11 08:15:33;;;;;;;329.75;78.28;;;-0.20;99.90;;;;;;5092868;28;20171;-45
2022/01/11 08:17:59;;;;;;;197.45;65.68;;;-0.40;99.90;;;;;;5092373;28;20032;-44
2022/01/11 08:20:24;;;;;;;162.05;58.15;;;-0.40;99.90;;;;;;5090805;28;20532;-45
2022/01/11 08:22:51;;;;;;;185.05;62.65;;;-0.40;99.90;;;;;;5091901;28;20047;-44
2022/01/11 08:25:17;;;;;;;169.00;60.50;;;-0.40;99.90;;;;;;5092070;28;20043;-45
2022/01/11 08:27:43;;;;;;;180.02;61.40;;;-0.20;99.90;;;;;;5092440;28;20052;-44
2022/01/11 08:30:09;;;;;;;165.00;60.97;;;-0.20;99.90;;;;;;5091944;28;20463;-45
2022/01/11 08:32:35;;;;;;;185.25;61.80;;;-0.40;99.90;;;;;;5092140;28;20481;-45
2022/01/11 08:35:01;;;;;;;182.95;63.58;;;-0.20;99.90;;;;;;5091783;28;20044;-44
2022/01/11 08:37:27;;;;;;;194.48;62.78;;;0.10;99.90;;;;;;5088093;28;20050;-45
2022/01/11 08:39:53;;;;;;;163.70;59.30;;;-0.20;99.90;;;;;;5091519;28;20070;-45
2022/01/11 08:42:19;;;;;;;173.10;63.45;;;-0.10;99.90;;;;;;5091403;28;20505;-46
2022/01/11 08:44:46;;;;;;;232.85;68.47;;;0.00;99.90;;;;;;5092195;28;20061;-44
2022/01/11 08:47:14;;;;;;;233.10;70.22;;;0.00;99.90;;;;;;5091970;28;20044;-44
2022/01/11 08:49:40;;;;;;;162.07;59.60;;;0.00;99.90;;;;;;5091606;28;20047;-46
2022/01/11 08:52:06;;;;;;;162.82;57.50;;;0.00;99.90;;;;;;5091879;28;20105;-44
2022/01/11 08:54:32;;;;;;;153.30;58.85;;;0.10;99.90;;;;;;5091533;28;20047;-45
2022/01/11 08:56:58;;;;;;;162.48;58.28;;;0.00;99.90;;;;;;5090366;28;20046;-45
2022/01/11 08:59:28;;;;;;;159.55;55.22;;;0.10;99.90;;;;;;5091672;28;20040;-46
2022/01/11 09:01:58;;;;;;;145.70;57.40;;;0.10;99.90;;;;;;5091775;28;20135;-45
2022/01/11 09:04:24;;;;;;;167.30;56.25;;;0.10;99.90;;;;;;5091739;28;20073;-44
2022/01/11 09:06:51;;;;;;;127.65;51.88;;;0.00;99.90;;;;;;5091563;28;20054;-45
2022/01/11 09:09:18;;;;;;;137.95;53.22;;;0.20;99.90;;;;;;5091446;28;20386;-44
2022/01/11 09:11:45;;;;;;;204.70;61.92;;;0.10;99.90;;;;;;5092097;28;20039;-46
2022/01/11 09:14:11;;;;;;;139.80;53.33;;;0.20;99.90;;;;;;5091354;28;20130;-45
2022/01/11 09:16:37;;;;;;;127.28;49.15;;;0.10;99.90;;;;;;5091251;28;20036;-47
2022/01/11 09:19:04;;;;;;;147.77;53.70;;;0.20;99.90;;;;;;5092119;28;20161;-45
2022/01/11 09:21:31;;;;;;;131.95;52.97;;;0.10;99.90;;;;;;5091983;28;20128;-45
2022/01/11 09:23:57;;;;;;;147.88;53.17;;;0.20;99.90;;;;;;5091424;28;20101;-44
2022/01/11 09:26:23;;;;;;;128.55;51.95;;;0.40;99.90;;;;;;5091179;28;20123;-45
2022/01/11 09:28:49;;;;;;;105.40;44.10;;;0.10;99.90;;;;;;5090170;28;20128;-47
2022/01/11 09:31:15;;;;;;;120.43;49.17;;;0.20;99.90;;;;;;5091307;28;20044;-45
2022/01/11 09:33:41;;;;;;;108.72;45.75;;;0.20;99.90;;;;;;5090907;28;20039;-45
2022/01/11 09:36:07;;;;;;;167.70;53.05;;;0.30;99.90;;;;;;5090706;28;20048;-45
2022/01/11 09:38:33;;;;;;;125.47;48.70;;;0.20;99.90;;;;;;5086947;28;20055;-45
2022/01/11 09:40:59;;;;;;;113.75;45.20;;;0.30;99.90;;;;;;5091081;28;20036;-46
2022/01/11 09:43:27;;;;;;;123.45;47.15;;;0.20;99.90;;;;;;5090591;28;20043;-44
2022/01/11 09:45:54;;;;;;;106.13;43.00;;;0.20;99.90;;;;;;5090885;28;20052;-46
2022/01/11 09:48:22;;;;;;;115.70;43.83;;;0.20;99.90;;;;;;5090348;28;20039;-45
2022/01/11 09:50:48;;;;;;;102.53;42.35;;;0.30;99.90;;;;;;5090651;28;20039;-46
2022/01/11 09:53:13;;;;;;;107.25;42.28;;;0.30;99.90;;;;;;5090408;28;20073;-44
2022/01/11 09:55:39;;;;;;;107.95;40.55;;;0.20;99.90;;;;;;5090368;28;20044;-45
2022/01/11 09:58:05;;;;;;;131.60;45.65;;;0.20;99.90;;;;;;5090406;28;20172;-45
2022/01/11 10:00:33;;;;;;;106.15;42.70;;;0.20;99.90;;;;;;5090407;28;20052;-45
2022/01/11 10:02:59;;;;;;;91.47;40.17;;;0.30;99.90;;;;;;5090326;28;20054;-45
2022/01/11 10:05:25;;;;;;;99.68;40.50;;;0.30;99.90;;;;;;5090494;28;20052;-46
2022/01/11 10:07:51;;;;;;;100.00;38.72;;;0.70;99.90;;;;;;5090235;28;20444;-46
2022/01/11 10:10:22;;;;;;;86.35;36.58;;;0.30;99.90;;;;;;5090430;28;20036;-45
2022/01/11 10:12:53;;;;;;;98.72;39.17;;;0.40;99.90;;;;;;5090534;28;20086;-47
2022/01/11 10:15:29;;;;;;;100.68;38.10;;;0.40;99.90;;;;;;5090275;28;20048;-46
2022/01/11 10:17:55;;;;;;;102.13;37.63;;;0.90;99.90;;;;;;5090134;28;20052;-45
2022/01/11 10:20:23;;;;;;;104.15;41.70;;;0.40;99.90;;;;;;5090266;28;20440;-44
2022/01/11 10:22:54;;;;;;;77.30;33.55;;;0.40;99.90;;;;;;5090000;28;20039;-45
2022/01/11 10:25:20;;;;;;;84.13;35.45;;;0.20;99.90;;;;;;5090448;28;20436;-45
2022/01/11 10:28:01;;;;;;;89.40;35.50;;;0.40;99.90;;;;;;5089897;28;20044;-45
2022/01/11 10:30:28;;;;;;;77.75;32.60;;;0.20;99.90;;;;;;5089811;28;20047;-46
2022/01/11 10:32:56;;;;;;;78.43;33.85;;;0.30;99.90;;;;;;5090147;28;20405;-45
2022/01/11 10:35:26;;;;;;;79.82;33.53;;;0.30;99.90;;;;;;5090088;28;20040;-45
2022/01/11 10:37:54;;;;;;;75.72;32.50;;;0.20;99.90;;;;;;5087542;28;20048;-45
2022/01/11 10:40:26;;;;;;;92.90;37.15;;;0.20;99.90;;;;;;5089991;28;20040;-45
2022/01/11 10:42:57;;;;;;;94.25;37.40;;;0.20;99.90;;;;;;5090149;28;20055;-46
2022/01/11 10:45:35;;;;;;;88.35;33.25;;;0.20;99.90;;;;;;5088778;28;20044;-45
2022/01/11 10:48:03;;;;;;;67.80;31.85;;;0.30;99.90;;;;;;5090019;28;20101;-46
2022/01/11 10:50:38;;;;;;;85.05;32.28;;;0.20;99.90;;;;;;5089894;28;20047;-45
2022/01/11 10:53:24;;;;;;;80.30;32.30;;;0.20;99.90;;;;;;5090172;28;20097;-44
2022/01/11 10:55:53;;;;;;;81.60;33.28;;;0.20;99.90;;;;;;5089915;28;20059;-45
2022/01/11 10:58:18;;;;;;;71.53;30.58;;;0.30;99.90;;;;;;5089642;28;20486;-47
2022/01/11 11:00:45;;;;;;;83.10;34.85;;;0.30;99.90;;;;;;5089533;28;20576;-44
2022/01/11 11:03:16;;;;;;;70.10;31.17;;;0.30;99.90;;;;;;5089435;28;20490;-45
2022/01/11 11:05:51;;;;;;;83.88;34.53;;;0.20;99.90;;;;;;5089363;28;20055;-45
2022/01/11 11:08:25;;;;;;;71.28;33.08;;;0.20;99.90;;;;;;5088135;28;20134;-45
2022/01/11 11:10:57;;;;;;;70.38;31.10;;;0.10;99.90;;;;;;5089571;28;20036;-45
2022/01/11 11:13:25;;;;;;;75.53;32.93;;;0.20;99.90;;;;;;5091294;28;20051;-45
2022/01/11 11:15:57;;;;;;;73.53;31.08;;;0.30;99.90;;;;;;5093647;28;20326;-45
2022/01/11 11:18:24;;;;;;;72.57;29.52;;;0.30;99.90;;;;;;5093752;28;20096;-46
2022/01/11 11:20:50;;;;;;;82.72;33.85;;;0.30;99.90;;;;;;5093681;28;20119;-45
2022/01/11 11:23:17;;;;;;;84.53;33.50;;;0.30;99.90;;;;;;5093589;28;20612;-44
2022/01/11 11:25:46;;;;;;;75.18;31.42;;;0.40;99.90;;;;;;5093236;28;20112;-45
2022/01/11 11:28:12;;;;;;;68.93;28.40;;;0.30;99.90;;;;;;5093422;28;20124;-46
2022/01/11 11:30:38;;;;;;;62.70;29.33;;;0.40;99.90;;;;;;5093157;28;20113;-46
2022/01/11 11:33:03;;;;;;;60.08;27.95;;;0.60;99.90;;;;;;5093742;28;20493;-44
2022/01/11 11:35:30;;;;;;;70.68;29.50;;;0.30;99.90;;;;;;5093444;28;20528;-46
2022/01/11 11:38:07;;;;;;;77.25;31.55;;;0.40;99.90;;;;;;5091008;28;20040;-44
2022/01/11 11:40:34;;;;;;;58.55;26.83;;;0.60;99.90;;;;;;5093489;28;20055;-45
2022/01/11 11:43:02;;;;;;;59.72;28.02;;;0.70;99.90;;;;;;5092843;28;20054;-46
2022/01/11 11:45:38;;;;;;;60.88;27.17;;;0.60;99.90;;;;;;5093088;28;20073;-45
2022/01/11 11:48:09;;;;;;;55.00;25.90;;;0.70;99.90;;;;;;5093604;28;20047;-44
2022/01/11 11:50:48;;;;;;;70.53;29.07;;;0.80;99.90;;;;;;5093560;28;20115;-45
2022/01/11 11:53:28;;;;;;;62.13;24.90;;;0.80;99.90;;;;;;5093236;28;20177;-44
2022/01/11 11:56:15;;;;;;;55.15;25.20;;;0.70;99.90;;;;;;5092723;28;20040;-44
2022/01/11 11:58:44;;;;;;;63.70;26.23;;;1.00;99.90;;;;;;5079397;28;20095;-44
2022/01/11 12:01:47;;;;;;;47.72;23.30;;;1.00;99.90;;;;;;5092578;28;20517;-46
2022/01/11 12:04:13;;;;;;;51.13;24.58;;;0.90;99.90;;;;;;5092771;28;20079;-46
2022/01/11 12:06:40;;;;;;;51.28;24.90;;;1.20;99.90;;;;;;5093162;28;20465;-44
2022/01/11 12:09:09;;;;;;;57.42;25.52;;;1.30;99.90;;;;;;5093060;28;20040;-44
2022/01/11 12:11:45;;;;;;;54.83;23.92;;;1.30;99.90;;;;;;5093091;28;20123;-44
2022/01/11 12:14:32;;;;;;;53.75;26.27;;;1.40;99.90;;;;;;5092557;28;20036;-45
2022/01/11 12:17:23;;;;;;;48.40;23.45;;;1.70;99.90;;;;;;5092425;28;20051;-44
2022/01/11 12:19:56;;;;;;;53.25;22.27;;;1.90;99.90;;;;;;5092679;28;20140;-45
2022/01/11 12:22:31;;;;;;;63.53;23.85;;;1.80;99.90;;;;;;5093035;28;20048;-44
2022/01/11 12:25:02;;;;;;;56.83;24.08;;;2.10;99.90;;;;;;5091541;28;20128;-46
2022/01/11 12:27:29;;;;;;;43.70;22.00;;;2.20;99.90;;;;;;5092334;28;20499;-44